Location Greenlaw, NA, UK

ob NPTOHCUK 240900Z AUTO 16005G10KT CLR CLR 11/10 A2970 RMK SLPNO 

2017.10.24 0900 UTC
Wind from the SSE (159 degrees) at 6 MPH (5 KT) gusting to 12 MPH (10 KT)
Visibility    Mile(s)
Weather: CLR
Sky Conditions  clear
Temperature 51.0 F (11 C)
Dew Point 49.6 F (10 C)
Relative Humidity 95%
Pressure   29.700 in. Hg (1006 hPa)
Rain  0.00 in.
Daily Rain  in.

Station Name  New Palace Theatre Organ Heritage Centre
Longitude, Latitude  -2.463611, 55.706389
Elevation 525
Station URL http://www.nptohc.co.uk/weather
Software Type WeatherDisplay:10.37P